sensor_id;sensor_type;location;lat;lon;timestamp;temperature;humidity
43920;DHT22;29578;51.946;5.874;2022-08-19T00:01:26;19.00;77.80
43920;DHT22;29578;51.946;5.874;2022-08-19T00:03:55;19.00;77.90
43920;DHT22;29578;51.946;5.874;2022-08-19T00:06:21;18.90;77.90
43920;DHT22;29578;51.946;5.874;2022-08-19T00:08:47;18.90;78.00
43920;DHT22;29578;51.946;5.874;2022-08-19T00:11:13;18.90;78.00
43920;DHT22;29578;51.946;5.874;2022-08-19T00:13:39;18.90;78.10
43920;DHT22;29578;51.946;5.874;2022-08-19T00:16:06;18.90;78.10
43920;DHT22;29578;51.946;5.874;2022-08-19T00:18:33;18.90;78.10
43920;DHT22;29578;51.946;5.874;2022-08-19T00:20:59;18.90;78.20
43920;DHT22;29578;51.946;5.874;2022-08-19T00:23:25;18.80;78.20
43920;DHT22;29578;51.946;5.874;2022-08-19T00:25:51;18.80;78.90
43920;DHT22;29578;51.946;5.874;2022-08-19T00:28:18;18.80;78.40
43920;DHT22;29578;51.946;5.874;2022-08-19T00:30:44;18.70;78.40
43920;DHT22;29578;51.946;5.874;2022-08-19T00:33:10;18.70;78.50
43920;DHT22;29578;51.946;5.874;2022-08-19T00:35:36;18.80;78.50
43920;DHT22;29578;51.946;5.874;2022-08-19T00:38:04;18.70;78.50
43920;DHT22;29578;51.946;5.874;2022-08-19T00:40:32;18.70;78.70
43920;DHT22;29578;51.946;5.874;2022-08-19T00:42:58;18.60;78.60
43920;DHT22;29578;51.946;5.874;2022-08-19T00:45:26;18.70;78.60
43920;DHT22;29578;51.946;5.874;2022-08-19T00:47:52;18.60;78.70
43920;DHT22;29578;51.946;5.874;2022-08-19T00:50:19;18.60;78.70
43920;DHT22;29578;51.946;5.874;2022-08-19T00:52:48;18.60;78.80
43920;DHT22;29578;51.946;5.874;2022-08-19T00:55:19;18.50;79.50
43920;DHT22;29578;51.946;5.874;2022-08-19T00:57:48;18.60;78.90
43920;DHT22;29578;51.946;5.874;2022-08-19T01:00:18;18.50;79.00
43920;DHT22;29578;51.946;5.874;2022-08-19T01:02:44;18.50;79.10
43920;DHT22;29578;51.946;5.874;2022-08-19T01:05:16;18.40;79.10
43920;DHT22;29578;51.946;5.874;2022-08-19T01:07:44;18.40;79.10
43920;DHT22;29578;51.946;5.874;2022-08-19T01:10:14;18.40;79.10
43920;DHT22;29578;51.946;5.874;2022-08-19T01:12:40;18.50;79.20
43920;DHT22;29578;51.946;5.874;2022-08-19T01:15:09;18.40;79.10
43920;DHT22;29578;51.946;5.874;2022-08-19T01:17:36;18.40;79.20
43920;DHT22;29578;51.946;5.874;2022-08-19T01:20:05;18.30;79.20
43920;DHT22;29578;51.946;5.874;2022-08-19T01:22:43;18.30;79.20
43920;DHT22;29578;51.946;5.874;2022-08-19T01:25:09;18.30;79.30
43920;DHT22;29578;51.946;5.874;2022-08-19T01:27:39;18.30;79.30
43920;DHT22;29578;51.946;5.874;2022-08-19T01:30:07;18.30;79.40
43920;DHT22;29578;51.946;5.874;2022-08-19T01:32:33;18.30;79.40
43920;DHT22;29578;51.946;5.874;2022-08-19T01:34:59;18.20;79.40
43920;DHT22;29578;51.946;5.874;2022-08-19T01:37:27;18.20;79.50
43920;DHT22;29578;51.946;5.874;2022-08-19T01:39:53;18.20;79.50
43920;DHT22;29578;51.946;5.874;2022-08-19T01:42:19;18.20;79.50
43920;DHT22;29578;51.946;5.874;2022-08-19T01:44:45;18.20;79.50
43920;DHT22;29578;51.946;5.874;2022-08-19T01:47:11;18.10;79.60
43920;DHT22;29578;51.946;5.874;2022-08-19T01:49:37;18.20;79.60
43920;DHT22;29578;51.946;5.874;2022-08-19T01:52:04;18.10;79.60
43920;DHT22;29578;51.946;5.874;2022-08-19T01:54:31;18.10;79.70
43920;DHT22;29578;51.946;5.874;2022-08-19T01:57:01;18.10;79.80
43920;DHT22;29578;51.946;5.874;2022-08-19T01:59:30;18.10;79.80
43920;DHT22;29578;51.946;5.874;2022-08-19T02:01:56;18.10;79.80
43920;DHT22;29578;51.946;5.874;2022-08-19T02:04:22;18.10;79.90
43920;DHT22;29578;51.946;5.874;2022-08-19T02:06:48;18.00;79.80
43920;DHT22;29578;51.946;5.874;2022-08-19T02:09:14;18.10;79.90
43920;DHT22;29578;51.946;5.874;2022-08-19T02:11:41;18.10;79.90
43920;DHT22;29578;51.946;5.874;2022-08-19T02:14:08;18.10;79.80
43920;DHT22;29578;51.946;5.874;2022-08-19T02:16:35;18.10;79.70
43920;DHT22;29578;51.946;5.874;2022-08-19T02:19:00;18.20;79.80
43920;DHT22;29578;51.946;5.874;2022-08-19T02:21:26;18.20;79.70
43920;DHT22;29578;51.946;5.874;2022-08-19T02:23:53;18.30;79.80
43920;DHT22;29578;51.946;5.874;2022-08-19T02:26:19;18.20;79.70
43920;DHT22;29578;51.946;5.874;2022-08-19T02:28:45;18.30;79.70
43920;DHT22;29578;51.946;5.874;2022-08-19T02:31:13;18.20;79.60
43920;DHT22;29578;51.946;5.874;2022-08-19T02:33:40;18.30;79.70
43920;DHT22;29578;51.946;5.874;2022-08-19T02:36:07;18.30;80.30
43920;DHT22;29578;51.946;5.874;2022-08-19T02:38:34;18.30;79.80
43920;DHT22;29578;51.946;5.874;2022-08-19T02:41:05;18.20;79.80
43920;DHT22;29578;51.946;5.874;2022-08-19T02:43:33;18.20;79.90
43920;DHT22;29578;51.946;5.874;2022-08-19T02:48:41;18.10;80.00
43920;DHT22;29578;51.946;5.874;2022-08-19T02:51:06;18.20;80.10
43920;DHT22;29578;51.946;5.874;2022-08-19T02:53:32;18.20;80.10
43920;DHT22;29578;51.946;5.874;2022-08-19T02:55:58;18.20;80.10
43920;DHT22;29578;51.946;5.874;2022-08-19T02:58:24;18.20;80.10
43920;DHT22;29578;51.946;5.874;2022-08-19T03:00:53;18.20;80.20
43920;DHT22;29578;51.946;5.874;2022-08-19T03:03:20;18.20;80.20
43920;DHT22;29578;51.946;5.874;2022-08-19T03:05:46;18.10;80.20
43920;DHT22;29578;51.946;5.874;2022-08-19T03:08:13;18.10;80.30
43920;DHT22;29578;51.946;5.874;2022-08-19T03:10:41;18.10;80.30
43920;DHT22;29578;51.946;5.874;2022-08-19T03:13:10;18.10;80.40
43920;DHT22;29578;51.946;5.874;2022-08-19T03:15:39;18.00;80.40
43920;DHT22;29578;51.946;5.874;2022-08-19T03:18:05;18.00;80.50
43920;DHT22;29578;51.946;5.874;2022-08-19T03:20:31;18.00;80.50
43920;DHT22;29578;51.946;5.874;2022-08-19T03:22:56;18.00;80.60
43920;DHT22;29578;51.946;5.874;2022-08-19T03:25:22;18.00;80.70
43920;DHT22;29578;51.946;5.874;2022-08-19T03:27:48;18.00;80.70
43920;DHT22;29578;51.946;5.874;2022-08-19T03:30:14;17.90;80.70
43920;DHT22;29578;51.946;5.874;2022-08-19T03:32:40;17.90;80.80
43920;DHT22;29578;51.946;5.874;2022-08-19T03:35:06;17.80;80.80
43920;DHT22;29578;51.946;5.874;2022-08-19T03:37:32;17.80;80.90
43920;DHT22;29578;51.946;5.874;2022-08-19T03:39:58;17.80;80.90
43920;DHT22;29578;51.946;5.874;2022-08-19T03:42:24;17.80;81.10
43920;DHT22;29578;51.946;5.874;2022-08-19T03:44:52;17.80;81.10
43920;DHT22;29578;51.946;5.874;2022-08-19T03:47:18;17.70;81.00
43920;DHT22;29578;51.946;5.874;2022-08-19T03:49:44;17.70;81.10
43920;DHT22;29578;51.946;5.874;2022-08-19T03:52:10;17.70;81.20
43920;DHT22;29578;51.946;5.874;2022-08-19T03:54:36;17.70;81.20
43920;DHT22;29578;51.946;5.874;2022-08-19T03:57:04;17.70;81.30
43920;DHT22;29578;51.946;5.874;2022-08-19T03:59:34;17.60;81.30
43920;DHT22;29578;51.946;5.874;2022-08-19T04:02:05;17.60;81.30
43920;DHT22;29578;51.946;5.874;2022-08-19T04:04:32;17.60;81.30
43920;DHT22;29578;51.946;5.874;2022-08-19T04:06:58;17.50;81.20
43920;DHT22;29578;51.946;5.874;2022-08-19T04:09:24;17.60;81.30
43920;DHT22;29578;51.946;5.874;2022-08-19T04:11:53;17.60;81.30
43920;DHT22;29578;51.946;5.874;2022-08-19T04:14:22;17.60;81.30
43920;DHT22;29578;51.946;5.874;2022-08-19T04:16:50;17.60;81.30
43920;DHT22;29578;51.946;5.874;2022-08-19T04:19:17;17.60;81.30
43920;DHT22;29578;51.946;5.874;2022-08-19T04:21:45;17.60;81.30
43920;DHT22;29578;51.946;5.874;2022-08-19T04:24:12;17.60;81.30
43920;DHT22;29578;51.946;5.874;2022-08-19T04:26:38;17.60;81.40
43920;DHT22;29578;51.946;5.874;2022-08-19T04:29:07;17.60;81.40
43920;DHT22;29578;51.946;5.874;2022-08-19T04:31:34;17.60;81.50
43920;DHT22;29578;51.946;5.874;2022-08-19T04:34:03;17.50;81.40
43920;DHT22;29578;51.946;5.874;2022-08-19T04:36:33;17.60;81.50
43920;DHT22;29578;51.946;5.874;2022-08-19T04:39:04;17.60;81.50
43920;DHT22;29578;51.946;5.874;2022-08-19T04:41:32;17.50;81.50
43920;DHT22;29578;51.946;5.874;2022-08-19T04:44:12;17.50;81.50
43920;DHT22;29578;51.946;5.874;2022-08-19T04:46:38;17.40;81.50
43920;DHT22;29578;51.946;5.874;2022-08-19T04:49:05;17.40;81.60
43920;DHT22;29578;51.946;5.874;2022-08-19T04:51:33;17.40;81.60
43920;DHT22;29578;51.946;5.874;2022-08-19T04:54:01;17.40;81.60
43920;DHT22;29578;51.946;5.874;2022-08-19T04:56:27;17.30;81.60
43920;DHT22;29578;51.946;5.874;2022-08-19T04:58:54;17.40;81.70
43920;DHT22;29578;51.946;5.874;2022-08-19T05:01:24;17.40;81.80
43920;DHT22;29578;51.946;5.874;2022-08-19T05:03:50;17.40;81.80
43920;DHT22;29578;51.946;5.874;2022-08-19T05:06:20;17.30;81.70
43920;DHT22;29578;51.946;5.874;2022-08-19T05:08:46;17.30;81.70
43920;DHT22;29578;51.946;5.874;2022-08-19T05:11:19;17.40;81.80
43920;DHT22;29578;51.946;5.874;2022-08-19T05:13:46;17.30;81.70
43920;DHT22;29578;51.946;5.874;2022-08-19T05:16:14;17.30;81.70
43920;DHT22;29578;51.946;5.874;2022-08-19T05:18:40;17.30;81.80
43920;DHT22;29578;51.946;5.874;2022-08-19T05:21:26;17.40;81.80
43920;DHT22;29578;51.946;5.874;2022-08-19T05:24:06;17.30;81.80
43920;DHT22;29578;51.946;5.874;2022-08-19T05:26:35;17.30;81.80
43920;DHT22;29578;51.946;5.874;2022-08-19T05:29:02;17.30;81.80
43920;DHT22;29578;51.946;5.874;2022-08-19T05:31:29;17.40;81.80
43920;DHT22;29578;51.946;5.874;2022-08-19T05:33:55;17.40;81.70
43920;DHT22;29578;51.946;5.874;2022-08-19T05:36:21;17.50;81.80
43920;DHT22;29578;51.946;5.874;2022-08-19T05:38:47;17.50;81.70
43920;DHT22;29578;51.946;5.874;2022-08-19T05:41:14;17.50;81.60
43920;DHT22;29578;51.946;5.874;2022-08-19T05:43:40;17.50;81.60
43920;DHT22;29578;51.946;5.874;2022-08-19T05:46:07;17.60;81.50
43920;DHT22;29578;51.946;5.874;2022-08-19T05:48:34;17.50;81.50
43920;DHT22;29578;51.946;5.874;2022-08-19T05:51:04;17.60;81.50
43920;DHT22;29578;51.946;5.874;2022-08-19T05:53:35;17.70;81.50
43920;DHT22;29578;51.946;5.874;2022-08-19T05:56:05;17.70;81.50
43920;DHT22;29578;51.946;5.874;2022-08-19T05:58:31;17.80;81.50
43920;DHT22;29578;51.946;5.874;2022-08-19T06:00:58;17.80;81.50
43920;DHT22;29578;51.946;5.874;2022-08-19T06:03:30;17.80;81.40
43920;DHT22;29578;51.946;5.874;2022-08-19T06:05:57;17.90;81.50
43920;DHT22;29578;51.946;5.874;2022-08-19T06:08:26;17.90;81.50
43920;DHT22;29578;51.946;5.874;2022-08-19T06:10:52;17.90;82.20
43920;DHT22;29578;51.946;5.874;2022-08-19T06:13:18;17.90;81.70
43920;DHT22;29578;51.946;5.874;2022-08-19T06:15:45;18.00;81.70
43920;DHT22;29578;51.946;5.874;2022-08-19T06:18:13;18.10;81.70
43920;DHT22;29578;51.946;5.874;2022-08-19T06:20:40;18.10;81.80
43920;DHT22;29578;51.946;5.874;2022-08-19T06:23:06;18.20;81.80
43920;DHT22;29578;51.946;5.874;2022-08-19T06:25:33;18.20;81.70
43920;DHT22;29578;51.946;5.874;2022-08-19T06:27:58;18.20;81.60
43920;DHT22;29578;51.946;5.874;2022-08-19T06:30:24;18.30;81.60
43920;DHT22;29578;51.946;5.874;2022-08-19T06:32:50;18.30;81.60
43920;DHT22;29578;51.946;5.874;2022-08-19T06:35:16;18.40;81.50
43920;DHT22;29578;51.946;5.874;2022-08-19T06:37:42;18.50;81.50
43920;DHT22;29578;51.946;5.874;2022-08-19T06:40:08;18.60;81.40
43920;DHT22;29578;51.946;5.874;2022-08-19T06:42:36;18.70;81.20
43920;DHT22;29578;51.946;5.874;2022-08-19T06:45:05;18.80;81.10
43920;DHT22;29578;51.946;5.874;2022-08-19T06:47:31;18.90;81.10
43920;DHT22;29578;51.946;5.874;2022-08-19T06:49:59;18.90;81.00
43920;DHT22;29578;51.946;5.874;2022-08-19T06:52:30;19.00;81.10
43920;DHT22;29578;51.946;5.874;2022-08-19T06:54:55;19.00;81.10
43920;DHT22;29578;51.946;5.874;2022-08-19T06:57:22;19.10;81.10
43920;DHT22;29578;51.946;5.874;2022-08-19T06:59:48;19.10;81.10
43920;DHT22;29578;51.946;5.874;2022-08-19T07:02:14;19.20;81.20
43920;DHT22;29578;51.946;5.874;2022-08-19T07:04:39;19.20;81.10
43920;DHT22;29578;51.946;5.874;2022-08-19T07:07:09;19.30;81.20
43920;DHT22;29578;51.946;5.874;2022-08-19T07:09:37;19.40;81.20
43920;DHT22;29578;51.946;5.874;2022-08-19T07:12:06;19.40;81.20
43920;DHT22;29578;51.946;5.874;2022-08-19T07:14:33;19.40;81.20
43920;DHT22;29578;51.946;5.874;2022-08-19T07:17:03;19.40;81.30
43920;DHT22;29578;51.946;5.874;2022-08-19T07:19:29;19.40;81.40
43920;DHT22;29578;51.946;5.874;2022-08-19T07:21:57;19.40;81.60
43920;DHT22;29578;51.946;5.874;2022-08-19T07:24:25;19.40;81.60
43920;DHT22;29578;51.946;5.874;2022-08-19T07:26:54;19.50;81.60
43920;DHT22;29578;51.946;5.874;2022-08-19T07:29:21;19.50;81.60
43920;DHT22;29578;51.946;5.874;2022-08-19T07:31:50;19.50;81.50
43920;DHT22;29578;51.946;5.874;2022-08-19T07:34:17;19.60;81.40
43920;DHT22;29578;51.946;5.874;2022-08-19T07:36:44;19.80;81.30
43920;DHT22;29578;51.946;5.874;2022-08-19T07:39:14;19.80;81.10
43920;DHT22;29578;51.946;5.874;2022-08-19T07:41:41;20.00;81.00
43920;DHT22;29578;51.946;5.874;2022-08-19T07:44:08;20.00;80.80
43920;DHT22;29578;51.946;5.874;2022-08-19T07:46:37;20.10;80.50
43920;DHT22;29578;51.946;5.874;2022-08-19T07:49:04;20.20;80.50
43920;DHT22;29578;51.946;5.874;2022-08-19T07:51:30;20.20;80.40
43920;DHT22;29578;51.946;5.874;2022-08-19T07:53:56;20.30;80.50
43920;DHT22;29578;51.946;5.874;2022-08-19T07:56:22;20.30;80.40
43920;DHT22;29578;51.946;5.874;2022-08-19T07:58:51;20.40;80.50
43920;DHT22;29578;51.946;5.874;2022-08-19T08:01:21;20.40;80.40
43920;DHT22;29578;51.946;5.874;2022-08-19T08:03:48;20.50;80.30
43920;DHT22;29578;51.946;5.874;2022-08-19T08:06:26;20.50;80.20
43920;DHT22;29578;51.946;5.874;2022-08-19T08:09:09;20.60;80.10
43920;DHT22;29578;51.946;5.874;2022-08-19T08:11:39;20.70;80.00
43920;DHT22;29578;51.946;5.874;2022-08-19T08:14:06;20.80;79.90
43920;DHT22;29578;51.946;5.874;2022-08-19T08:16:38;20.80;79.80
43920;DHT22;29578;51.946;5.874;2022-08-19T08:19:05;20.90;79.70
43920;DHT22;29578;51.946;5.874;2022-08-19T08:21:32;20.90;79.70
43920;DHT22;29578;51.946;5.874;2022-08-19T08:23:58;20.90;79.90
43920;DHT22;29578;51.946;5.874;2022-08-19T08:26:24;21.00;79.80
43920;DHT22;29578;51.946;5.874;2022-08-19T08:28:51;21.00;79.80
43920;DHT22;29578;51.946;5.874;2022-08-19T08:31:17;21.10;79.70
43920;DHT22;29578;51.946;5.874;2022-08-19T08:33:44;21.30;79.50
43920;DHT22;29578;51.946;5.874;2022-08-19T08:36:11;21.50;79.00
43920;DHT22;29578;51.946;5.874;2022-08-19T08:38:37;21.70;78.70
43920;DHT22;29578;51.946;5.874;2022-08-19T08:41:13;21.90;78.30
43920;DHT22;29578;51.946;5.874;2022-08-19T08:43:47;22.10;78.10
43920;DHT22;29578;51.946;5.874;2022-08-19T08:46:21;22.20;77.80
43920;DHT22;29578;51.946;5.874;2022-08-19T08:49:01;22.30;77.70
43920;DHT22;29578;51.946;5.874;2022-08-19T08:51:40;22.30;77.60
43920;DHT22;29578;51.946;5.874;2022-08-19T08:54:11;22.40;77.40
43920;DHT22;29578;51.946;5.874;2022-08-19T08:56:39;22.50;77.20
43920;DHT22;29578;51.946;5.874;2022-08-19T08:59:14;22.70;77.10
43920;DHT22;29578;51.946;5.874;2022-08-19T09:01:42;22.80;76.90
43920;DHT22;29578;51.946;5.874;2022-08-19T09:04:10;22.90;76.70
43920;DHT22;29578;51.946;5.874;2022-08-19T09:07:10;23.00;76.40
43920;DHT22;29578;51.946;5.874;2022-08-19T09:09:43;23.10;76.20
43920;DHT22;29578;51.946;5.874;2022-08-19T09:12:20;23.20;76.00
43920;DHT22;29578;51.946;5.874;2022-08-19T09:14:52;23.30;75.90
43920;DHT22;29578;51.946;5.874;2022-08-19T09:17:25;23.30;75.70
43920;DHT22;29578;51.946;5.874;2022-08-19T09:22:43;23.50;75.70
43920;DHT22;29578;51.946;5.874;2022-08-19T09:25:13;23.60;75.50
43920;DHT22;29578;51.946;5.874;2022-08-19T09:27:40;23.80;75.30
43920;DHT22;29578;51.946;5.874;2022-08-19T09:30:07;23.90;74.80
43920;DHT22;29578;51.946;5.874;2022-08-19T09:32:34;23.90;74.70
43920;DHT22;29578;51.946;5.874;2022-08-19T09:35:00;23.80;74.90
43920;DHT22;29578;51.946;5.874;2022-08-19T09:37:27;23.60;75.10
43920;DHT22;29578;51.946;5.874;2022-08-19T09:39:53;23.60;75.60
43920;DHT22;29578;51.946;5.874;2022-08-19T09:42:19;23.60;75.70
43920;DHT22;29578;51.946;5.874;2022-08-19T09:44:46;23.70;75.60
43920;DHT22;29578;51.946;5.874;2022-08-19T09:47:12;23.70;75.30
43920;DHT22;29578;51.946;5.874;2022-08-19T09:49:39;23.70;75.40
43920;DHT22;29578;51.946;5.874;2022-08-19T09:52:08;23.70;75.50
43920;DHT22;29578;51.946;5.874;2022-08-19T09:54:34;23.60;75.40
43920;DHT22;29578;51.946;5.874;2022-08-19T09:57:01;23.60;75.60
43920;DHT22;29578;51.946;5.874;2022-08-19T09:59:27;23.50;75.50
43920;DHT22;29578;51.946;5.874;2022-08-19T10:01:53;23.60;75.50
43920;DHT22;29578;51.946;5.874;2022-08-19T10:04:19;23.50;75.70
43920;DHT22;29578;51.946;5.874;2022-08-19T10:06:48;23.50;75.60
43920;DHT22;29578;51.946;5.874;2022-08-19T10:09:16;23.50;75.40
43920;DHT22;29578;51.946;5.874;2022-08-19T10:11:44;23.60;75.40
43920;DHT22;29578;51.946;5.874;2022-08-19T10:14:13;23.60;75.20
43920;DHT22;29578;51.946;5.874;2022-08-19T10:16:40;23.60;75.10
43920;DHT22;29578;51.946;5.874;2022-08-19T10:19:07;23.60;75.00
43920;DHT22;29578;51.946;5.874;2022-08-19T10:21:35;23.60;74.80
43920;DHT22;29578;51.946;5.874;2022-08-19T10:24:04;23.60;74.80
43920;DHT22;29578;51.946;5.874;2022-08-19T10:26:35;23.70;74.60
43920;DHT22;29578;51.946;5.874;2022-08-19T10:29:03;23.70;74.50
43920;DHT22;29578;51.946;5.874;2022-08-19T10:31:31;23.60;74.40
43920;DHT22;29578;51.946;5.874;2022-08-19T10:33:58;23.60;74.50
43920;DHT22;29578;51.946;5.874;2022-08-19T10:36:26;23.60;74.40
43920;DHT22;29578;51.946;5.874;2022-08-19T10:38:54;23.70;74.10
43920;DHT22;29578;51.946;5.874;2022-08-19T10:41:25;23.80;73.70
43920;DHT22;29578;51.946;5.874;2022-08-19T10:43:54;23.90;73.60
43920;DHT22;29578;51.946;5.874;2022-08-19T10:46:21;23.90;73.30
43920;DHT22;29578;51.946;5.874;2022-08-19T10:48:48;24.00;73.20
43920;DHT22;29578;51.946;5.874;2022-08-19T10:51:14;24.00;72.90
43920;DHT22;29578;51.946;5.874;2022-08-19T10:53:52;24.00;72.60
43920;DHT22;29578;51.946;5.874;2022-08-19T10:56:18;24.00;72.70
43920;DHT22;29578;51.946;5.874;2022-08-19T10:59:03;23.90;72.70
43920;DHT22;29578;51.946;5.874;2022-08-19T11:01:30;24.10;72.50
43920;DHT22;29578;51.946;5.874;2022-08-19T11:04:00;24.20;72.30
43920;DHT22;29578;51.946;5.874;2022-08-19T11:06:27;24.30;72.00
43920;DHT22;29578;51.946;5.874;2022-08-19T11:08:54;24.30;71.90
43920;DHT22;29578;51.946;5.874;2022-08-19T11:11:21;24.40;71.70
43920;DHT22;29578;51.946;5.874;2022-08-19T11:13:47;24.40;71.60
43920;DHT22;29578;51.946;5.874;2022-08-19T11:16:18;24.40;71.60
43920;DHT22;29578;51.946;5.874;2022-08-19T11:18:47;24.40;71.60
43920;DHT22;29578;51.946;5.874;2022-08-19T11:21:18;24.50;71.20
43920;DHT22;29578;51.946;5.874;2022-08-19T11:23:46;24.60;71.00
43920;DHT22;29578;51.946;5.874;2022-08-19T11:26:13;24.60;70.80
43920;DHT22;29578;51.946;5.874;2022-08-19T11:28:40;24.70;70.70
43920;DHT22;29578;51.946;5.874;2022-08-19T11:31:16;24.70;70.40
43920;DHT22;29578;51.946;5.874;2022-08-19T11:33:43;24.80;70.20
43920;DHT22;29578;51.946;5.874;2022-08-19T11:36:09;24.80;70.10
43920;DHT22;29578;51.946;5.874;2022-08-19T11:38:36;24.90;70.00
43920;DHT22;29578;51.946;5.874;2022-08-19T11:41:05;24.90;69.60
43920;DHT22;29578;51.946;5.874;2022-08-19T11:43:33;24.90;69.70
43920;DHT22;29578;51.946;5.874;2022-08-19T11:46:03;24.90;70.10
43920;DHT22;29578;51.946;5.874;2022-08-19T11:48:29;24.80;69.90
43920;DHT22;29578;51.946;5.874;2022-08-19T11:50:54;24.90;69.90
43920;DHT22;29578;51.946;5.874;2022-08-19T11:53:22;24.90;69.80
43920;DHT22;29578;51.946;5.874;2022-08-19T11:55:49;25.00;69.60
43920;DHT22;29578;51.946;5.874;2022-08-19T11:58:16;25.10;69.40
43920;DHT22;29578;51.946;5.874;2022-08-19T12:00:43;25.10;69.00
43920;DHT22;29578;51.946;5.874;2022-08-19T12:03:11;25.20;69.00
43920;DHT22;29578;51.946;5.874;2022-08-19T12:05:38;25.20;69.00
43920;DHT22;29578;51.946;5.874;2022-08-19T12:08:05;25.30;68.80
43920;DHT22;29578;51.946;5.874;2022-08-19T12:10:32;25.30;68.70
43920;DHT22;29578;51.946;5.874;2022-08-19T12:12:58;25.40;68.50
43920;DHT22;29578;51.946;5.874;2022-08-19T12:15:23;25.30;68.40
43920;DHT22;29578;51.946;5.874;2022-08-19T12:17:49;25.30;68.60
43920;DHT22;29578;51.946;5.874;2022-08-19T12:20:15;25.30;68.70
43920;DHT22;29578;51.946;5.874;2022-08-19T12:22:43;25.20;68.70
43920;DHT22;29578;51.946;5.874;2022-08-19T12:25:10;25.10;69.00
43920;DHT22;29578;51.946;5.874;2022-08-19T12:27:36;25.10;69.00
43920;DHT22;29578;51.946;5.874;2022-08-19T12:30:04;25.20;68.90
43920;DHT22;29578;51.946;5.874;2022-08-19T12:32:30;25.20;68.90
43920;DHT22;29578;51.946;5.874;2022-08-19T12:34:55;25.30;68.80
43920;DHT22;29578;51.946;5.874;2022-08-19T12:37:21;25.40;68.60
43920;DHT22;29578;51.946;5.874;2022-08-19T12:39:47;25.40;68.40
43920;DHT22;29578;51.946;5.874;2022-08-19T12:42:13;25.40;68.40
43920;DHT22;29578;51.946;5.874;2022-08-19T12:44:41;25.40;68.40
43920;DHT22;29578;51.946;5.874;2022-08-19T12:47:08;25.30;68.50
43920;DHT22;29578;51.946;5.874;2022-08-19T12:49:35;25.40;68.40
43920;DHT22;29578;51.946;5.874;2022-08-19T12:52:03;25.50;68.40
43920;DHT22;29578;51.946;5.874;2022-08-19T12:54:30;25.50;68.20
43920;DHT22;29578;51.946;5.874;2022-08-19T12:56:58;25.50;68.30
43920;DHT22;29578;51.946;5.874;2022-08-19T12:59:25;25.60;68.10
43920;DHT22;29578;51.946;5.874;2022-08-19T13:01:51;25.60;67.90
43920;DHT22;29578;51.946;5.874;2022-08-19T13:04:17;25.60;67.70
43920;DHT22;29578;51.946;5.874;2022-08-19T13:06:44;25.60;67.60
43920;DHT22;29578;51.946;5.874;2022-08-19T13:09:09;25.60;67.70
43920;DHT22;29578;51.946;5.874;2022-08-19T13:11:37;25.60;67.90
43920;DHT22;29578;51.946;5.874;2022-08-19T13:14:03;25.60;67.90
43920;DHT22;29578;51.946;5.874;2022-08-19T13:16:30;25.60;67.90
43920;DHT22;29578;51.946;5.874;2022-08-19T13:18:56;25.60;67.90
43920;DHT22;29578;51.946;5.874;2022-08-19T13:21:25;25.60;67.80
43920;DHT22;29578;51.946;5.874;2022-08-19T13:23:53;25.60;67.90
43920;DHT22;29578;51.946;5.874;2022-08-19T13:26:20;25.60;67.80
43920;DHT22;29578;51.946;5.874;2022-08-19T13:28:46;25.70;67.60
43920;DHT22;29578;51.946;5.874;2022-08-19T13:31:26;25.70;67.70
43920;DHT22;29578;51.946;5.874;2022-08-19T13:34:04;25.80;67.50
43920;DHT22;29578;51.946;5.874;2022-08-19T13:36:32;25.90;67.30
43920;DHT22;29578;51.946;5.874;2022-08-19T13:38:58;26.00;67.10
43920;DHT22;29578;51.946;5.874;2022-08-19T13:41:24;26.00;67.00
43920;DHT22;29578;51.946;5.874;2022-08-19T13:43:50;26.00;66.90
43920;DHT22;29578;51.946;5.874;2022-08-19T13:46:16;26.00;67.00
43920;DHT22;29578;51.946;5.874;2022-08-19T13:48:42;25.90;67.00
43920;DHT22;29578;51.946;5.874;2022-08-19T13:51:09;25.90;67.00
43920;DHT22;29578;51.946;5.874;2022-08-19T13:53:37;26.00;67.00
43920;DHT22;29578;51.946;5.874;2022-08-19T13:56:08;25.90;67.20
43920;DHT22;29578;51.946;5.874;2022-08-19T13:58:34;25.80;67.30
43920;DHT22;29578;51.946;5.874;2022-08-19T14:01:01;25.80;67.40
43920;DHT22;29578;51.946;5.874;2022-08-19T14:03:27;25.80;67.40
43920;DHT22;29578;51.946;5.874;2022-08-19T14:05:53;25.80;67.30
43920;DHT22;29578;51.946;5.874;2022-08-19T14:08:19;25.70;67.40
43920;DHT22;29578;51.946;5.874;2022-08-19T14:10:46;25.70;67.60
43920;DHT22;29578;51.946;5.874;2022-08-19T14:13:16;25.60;67.60
43920;DHT22;29578;51.946;5.874;2022-08-19T14:15:42;25.70;67.60
43920;DHT22;29578;51.946;5.874;2022-08-19T14:18:08;25.70;67.60
43920;DHT22;29578;51.946;5.874;2022-08-19T14:20:35;25.60;67.60
43920;DHT22;29578;51.946;5.874;2022-08-19T14:23:00;25.70;67.50
43920;DHT22;29578;51.946;5.874;2022-08-19T14:25:29;25.70;67.50
43920;DHT22;29578;51.946;5.874;2022-08-19T14:27:55;25.70;67.60
43920;DHT22;29578;51.946;5.874;2022-08-19T14:30:26;25.70;68.10
43920;DHT22;29578;51.946;5.874;2022-08-19T14:32:53;25.80;67.30
43920;DHT22;29578;51.946;5.874;2022-08-19T14:35:20;25.80;67.20
43920;DHT22;29578;51.946;5.874;2022-08-19T14:37:48;25.70;67.30
43920;DHT22;29578;51.946;5.874;2022-08-19T14:40:16;25.80;67.50
43920;DHT22;29578;51.946;5.874;2022-08-19T14:42:44;25.70;67.40
43920;DHT22;29578;51.946;5.874;2022-08-19T14:45:11;25.70;67.60
43920;DHT22;29578;51.946;5.874;2022-08-19T14:47:37;25.60;67.70
43920;DHT22;29578;51.946;5.874;2022-08-19T14:50:06;25.50;67.90
43920;DHT22;29578;51.946;5.874;2022-08-19T14:52:32;25.40;68.10
43920;DHT22;29578;51.946;5.874;2022-08-19T14:54:58;25.40;68.20
43920;DHT22;29578;51.946;5.874;2022-08-19T14:57:24;25.30;68.30
43920;DHT22;29578;51.946;5.874;2022-08-19T14:59:50;25.30;68.40
43920;DHT22;29578;51.946;5.874;2022-08-19T15:02:16;25.30;68.40
43920;DHT22;29578;51.946;5.874;2022-08-19T15:04:42;25.20;68.40
43920;DHT22;29578;51.946;5.874;2022-08-19T15:07:09;25.30;68.50
43920;DHT22;29578;51.946;5.874;2022-08-19T15:09:35;25.20;68.50
43920;DHT22;29578;51.946;5.874;2022-08-19T15:12:01;25.20;68.50
43920;DHT22;29578;51.946;5.874;2022-08-19T15:14:28;25.10;68.60
43920;DHT22;29578;51.946;5.874;2022-08-19T15:16:58;25.10;68.80
43920;DHT22;29578;51.946;5.874;2022-08-19T15:19:24;25.10;68.90
43920;DHT22;29578;51.946;5.874;2022-08-19T15:21:50;25.00;68.80
43920;DHT22;29578;51.946;5.874;2022-08-19T15:24:16;25.00;68.80
43920;DHT22;29578;51.946;5.874;2022-08-19T15:26:43;24.90;68.90
43920;DHT22;29578;51.946;5.874;2022-08-19T15:29:09;24.90;69.10
43920;DHT22;29578;51.946;5.874;2022-08-19T15:31:35;24.80;69.10
43920;DHT22;29578;51.946;5.874;2022-08-19T15:34:02;24.80;69.30
43920;DHT22;29578;51.946;5.874;2022-08-19T15:36:29;24.60;69.60
43920;DHT22;29578;51.946;5.874;2022-08-19T15:38:56;24.50;70.00